• Join FlightAware (Why Join?)
  • Login
  • US Flag 
12:42AM EDT


 

Airport Tracker/Info


-or-


 

Live Flight TrackerFlight Track Log ✈ SWA975 ✈ 20-Apr-2013 ✈ KFLL - KTPA

Flight Track Log - Related Links

Times and Time Zones

All times are in EDT time to prevent confusion due to time zone crossing. See the SWA975 flight status page for this flight to view local times or setup timezone preferences in your user account.

Time Position Orientation Groundspeed Altitude Reporting Facility
EDT Latitude Longitude Course Direction KTS MPH feet Rate Location/Type
12:39PM 26.0750 -80.1389 86° East 182 209 800  Level Miami Center
12:40PM 26.0783 -80.0836 86° East 225 259 2,400 1,200 Climbing Miami Center
12:41PM 26.0858 -80.0189 83° East 225 259 3,000 1,200 Climbing Miami Center
12:42PM 26.0939 -79.9428 83° East 229 264 4,900 2,100 Climbing Miami Center
12:43PM 26.1489 -79.9072 30° Northeast 240 276 7,500 1,560 Climbing Miami Center
12:44PM 26.2117 -79.8972 North 260 299 8,000 240 Climbing Miami Center
12:45PM 26.2394 -79.9722 292° West 271 312 8,000  Level Miami Center
12:46PM 26.2647 -80.0608 288° West 271 312 8,000 720 Level Miami Center
12:47PM 26.2819 -80.1331 285° West 271 312 9,500 2,760 Climbing Miami Center
12:48PM 26.3011 -80.2056 286° West 251 289 13,600 2,760 Climbing Miami Center
12:49PM 26.3056 -80.2867 274° West 250 288 15,100 1,200 Climbing Miami Center
12:50PM 26.3008 -80.3931 267° West 328 377 16,000 540 Climbing Miami Center
12:51PM 26.2939 -80.5042 266° West 357 411 16,200 1,380 Climbing Miami Center
12:52PM 26.3247 -80.6117 288° West 359 413 18,800 2,760 Climbing Miami Center
12:53PM 26.3889 -80.7042 308° West 359 413 21,800 1,560 Climbing Miami Center
12:54PM 26.4556 -80.7897 311° West 364 419 22,000 60 Climbing Miami Center
12:55PM 26.5222 -80.8756 311° West 364 419 22,000  Level Miami Center
12:56PM 26.5867 -80.9639 309° West 369 425 22,000  Level Miami Center
12:57PM 26.6531 -81.0519 310° West 369 425 22,000  Level Miami Center
12:58PM 26.7219 -81.1242 317° Northwest 369 425 22,000  Level Miami Center
12:59PM 26.7989 -81.2039 317° Northwest 379 436 22,000  Level Miami Center
01:00PM 26.8781 -81.2814 319° Northwest 379 436 22,000  Level Miami Center
01:01PM 26.9525 -81.3725 313° West 379 436 22,000 -540 Level Miami Center
01:02PM 27.0119 -81.4658 306° West 367 422 21,000 -1,020 Descending Miami Center
01:03PM 27.0658 -81.5472 307° West 361 415 20,000 -480 Descending Miami Center
01:05PM 27.1256 -81.6358 307° West 360 414 20,000 -720 Level Miami Center
01:06PM 27.2031 -81.7536 307° West 360 414 18,500 -1,500 Descending Miami Center
01:07PM 27.2525 -81.8303 306° West 360 414 17,000 -1,620 Descending Miami Center
01:08PM 27.3081 -81.9144 307° West 354 407 15,300 -1,740 Descending Miami Center
01:09PM 27.3594 -81.9939 306° West 336 387 13,600 -1,680 Descending Miami Center
01:10PM 27.4131 -82.0733 307° West 325 374 12,000 -1,320 Descending Miami Center
01:11PM 27.4686 -82.1531 308° West 314 361 11,000 -720 Descending Miami Center
01:12PM 27.5206 -82.2186 312° West 300 345 10,600 -900 Descending Miami Center
01:13PM 27.5686 -82.2725 315° West 273 314 9,300 -1,440 Descending Miami Center
01:14PM 27.6244 -82.3408 313° West 273 314 7,800 -1,380 Descending Miami Center
01:14PM 27.6500 -82.3667 318° Northwest 267 307 7,300 -1,200 Descending Tampa TRACON
01:15PM 27.7000 -82.4333 310° West 257 296 6,100 -1,260 Descending Tampa TRACON
01:16PM 27.7500 -82.5000 310° West 251 289 4,700 -960 Descending Tampa TRACON
01:17PM 27.8000 -82.5500 319° Northwest 229 264 4,000 -960 Descending Tampa TRACON
01:18PM 27.8500 -82.5500 360° North 199 229 2,800 -1,260 Descending Tampa TRACON
01:19PM 27.8833 -82.5500 360° North 161 185 1,800 -1,200 Descending Tampa TRACON
01:20PM 27.9333 -82.5500 360° North 140 161 600 -1,140 Descending Tampa TRACON
01:22PM 27.9667 -82.5167 41° Northeast  Level FlightAware Approximate
01:29PM 27.9755 -82.5332 41° Northeast  Level Estimated
01:30PM 27.9755 -82.5332 41° Northeast  Level Estimated